Time;durP1;ratioP1;P1;durP2;ratioP2;P2;SDS_P1;SDS_P2;PMS_P1;PMS_P2;Temp;Humidity;BMP_temperature;BMP_pressure;BME280_temperature;BME280_humidity;BME280_pressure;Samples;Min_cycle;Max_cycle;Signal;HPM_P1;HPM_P2
2022/10/16 00:01:09;;;;;;;;;;;21.10;99.90;;;;;;5058344;28;20315;-64
2022/10/16 00:03:36;;;;;;;;;;;21.10;99.90;;;;;;5033147;28;20344;-64
2022/10/16 00:06:04;;;;;;;;;;;21.10;99.90;;;;;;5047457;28;19925;-64
2022/10/16 00:08:31;;;;;;;;;;;21.10;99.90;;;;;;5057610;28;19928;-65
2022/10/16 00:11:03;;;;;;;;;;;21.10;99.90;;;;;;5049732;28;19935;-65
2022/10/16 00:13:31;;;;;;;;;;;21.10;99.90;;;;;;5056355;28;19924;-64
2022/10/16 00:15:58;;;;;;;;;;;21.10;99.90;;;;;;5062859;28;20355;-65
2022/10/16 00:18:26;;;;;;;;;;;21.10;99.90;;;;;;5051134;28;19929;-67
2022/10/16 00:20:53;;;;;;;;;;;21.10;99.90;;;;;;5052647;28;20416;-65
2022/10/16 00:23:22;;;;;;;;;;;21.10;99.90;;;;;;5048356;28;19929;-67
2022/10/16 00:25:59;;;;;;;;;;;21.00;99.90;;;;;;5045307;28;19928;-65
2022/10/16 00:28:26;;;;;;;;;;;21.00;99.90;;;;;;5062136;28;19929;-66
2022/10/16 00:30:53;;;;;;;;;;;21.00;99.90;;;;;;5046502;28;19925;-65
2022/10/16 00:33:20;;;;;;;;;;;21.00;99.90;;;;;;5048599;28;19925;-65
2022/10/16 00:35:48;;;;;;;;;;;21.00;99.90;;;;;;5048884;28;20388;-65
2022/10/16 00:38:15;;;;;;;;;;;21.00;99.90;;;;;;5038816;28;20304;-65
2022/10/16 00:40:42;;;;;;;;;;;21.00;99.90;;;;;;5054034;28;19929;-66
2022/10/16 00:43:12;;;;;;;;;;;21.00;99.90;;;;;;5050040;28;20408;-65
2022/10/16 00:45:39;;;;;;;;;;;21.00;99.90;;;;;;5058127;28;19931;-66
2022/10/16 00:48:10;;;;;;;;;;;21.00;99.90;;;;;;5054447;28;20324;-65
2022/10/16 00:50:38;;;;;;;;;;;21.00;99.90;;;;;;5040537;28;20297;-65
2022/10/16 00:53:06;;;;;;;;;;;21.00;99.90;;;;;;5041968;28;19944;-67
2022/10/16 00:55:33;;;;;;;;;;;21.00;99.90;;;;;;5027743;28;19928;-64
2022/10/16 00:58:06;;;;;;;;;;;21.00;99.90;;;;;;5049930;28;19932;-66
2022/10/16 01:00:33;;;;;;;;;;;21.00;99.90;;;;;;5048319;28;20400;-66
2022/10/16 01:03:01;;;;;;;;;;;21.00;99.90;;;;;;5048738;28;20352;-65
2022/10/16 01:05:50;;;;;;;;;;;21.00;99.90;;;;;;5049822;28;20015;-65
2022/10/16 01:08:21;;;;;;;;;;;21.00;99.90;;;;;;5041312;28;19929;-65
2022/10/16 01:10:49;;;;;;;;;;;21.00;99.90;;;;;;5047372;28;19940;-66
2022/10/16 01:13:40;;;;;;;;;;;20.90;99.90;;;;;;5060869;28;20311;-66
2022/10/16 01:16:10;;;;;;;;;;;21.00;99.90;;;;;;5027880;28;19936;-65
2022/10/16 01:18:39;;;;;;;;;;;21.00;99.90;;;;;;5047734;28;20597;-64
2022/10/16 01:21:09;;;;;;;;;;;21.00;99.90;;;;;;5040575;28;19925;-65
2022/10/16 01:23:57;;;;;;;;;;;21.00;99.90;;;;;;5038394;28;19925;-66
2022/10/16 01:26:30;;;;;;;;;;;21.00;99.90;;;;;;5043620;28;19924;-67
2022/10/16 01:29:01;;;;;;;;;;;21.00;99.90;;;;;;5046527;28;19929;-65
2022/10/16 01:31:31;;;;;;;;;;;20.90;99.90;;;;;;5055828;28;20400;-65
2022/10/16 01:34:14;;;;;;;;;;;20.90;99.90;;;;;;5042299;28;20352;-64
2022/10/16 01:36:45;;;;;;;;;;;21.00;99.90;;;;;;5062684;28;19935;-65
2022/10/16 01:39:13;;;;;;;;;;;20.90;99.90;;;;;;5042499;28;19929;-66
2022/10/16 01:41:44;;;;;;;;;;;20.90;99.90;;;;;;5055364;28;19933;-66
2022/10/16 01:44:13;;;;;;;;;;;20.90;99.90;;;;;;5043594;28;19926;-68
2022/10/16 01:46:42;;;;;;;;;;;20.90;99.90;;;;;;5052670;28;19928;-67
2022/10/16 01:49:10;;;;;;;;;;;20.90;99.90;;;;;;5066364;28;19924;-66
2022/10/16 01:51:37;;;;;;;;;;;20.90;99.90;;;;;;5062316;28;19928;-65
2022/10/16 01:54:06;;;;;;;;;;;20.90;99.90;;;;;;5065150;28;19928;-66
2022/10/16 01:56:34;;;;;;;;;;;20.90;99.90;;;;;;5048903;28;19925;-66
2022/10/16 01:59:03;;;;;;;;;;;20.90;99.90;;;;;;5055781;28;19929;-66
2022/10/16 02:01:32;;;;;;;;;;;20.90;99.90;;;;;;5047266;28;19935;-64
2022/10/16 02:04:04;;;;;;;;;;;20.90;99.90;;;;;;5054778;28;19929;-63
2022/10/16 02:06:31;;;;;;;;;;;20.90;99.90;;;;;;5054621;28;19929;-66
2022/10/16 02:08:59;;;;;;;;;;;20.90;99.90;;;;;;5050516;28;19933;-65
2022/10/16 02:11:26;;;;;;;;;;;20.90;99.90;;;;;;5043192;28;19924;-67
2022/10/16 02:13:55;;;;;;;;;;;20.90;99.90;;;;;;5052155;28;21495;-65
2022/10/16 02:16:23;;;;;;;;;;;20.90;99.90;;;;;;5043515;28;19940;-65
2022/10/16 02:18:50;;;;;;;;;;;20.90;99.90;;;;;;5056283;28;19925;-66
2022/10/16 02:21:29;;;;;;;;;;;20.90;99.90;;;;;;5042140;28;19944;-64
2022/10/16 02:24:12;;;;;;;;;;;20.90;99.90;;;;;;5049339;28;19924;-64
2022/10/16 02:26:39;;;;;;;;;;;20.90;99.90;;;;;;5046725;28;20388;-66
2022/10/16 02:29:12;;;;;;;;;;;20.90;99.90;;;;;;5041742;28;19936;-65
2022/10/16 02:31:43;;;;;;;;;;;20.80;99.90;;;;;;5048198;28;20425;-64
2022/10/16 02:34:11;;;;;;;;;;;20.80;99.90;;;;;;5055479;28;19943;-67
2022/10/16 02:36:39;;;;;;;;;;;20.80;99.90;;;;;;5050430;28;19928;-66
2022/10/16 02:39:07;;;;;;;;;;;20.80;99.90;;;;;;5046895;28;20315;-67
2022/10/16 02:41:34;;;;;;;;;;;20.80;99.90;;;;;;5046172;28;19952;-65
2022/10/16 02:44:01;;;;;;;;;;;20.80;99.90;;;;;;5048476;28;19940;-64
2022/10/16 02:46:28;;;;;;;;;;;20.80;99.90;;;;;;5044800;28;19932;-64
2022/10/16 02:48:55;;;;;;;;;;;20.80;99.90;;;;;;5046564;28;20312;-66
2022/10/16 02:51:22;;;;;;;;;;;20.80;99.90;;;;;;5044832;28;19929;-65
2022/10/16 02:53:49;;;;;;;;;;;20.80;99.90;;;;;;5046945;28;19925;-66
2022/10/16 02:56:17;;;;;;;;;;;20.80;99.90;;;;;;5040571;28;19929;-64
2022/10/16 02:58:44;;;;;;;;;;;20.80;99.90;;;;;;5041129;28;19932;-66
2022/10/16 03:01:12;;;;;;;;;;;20.80;99.90;;;;;;5049456;28;19925;-65
2022/10/16 03:03:39;;;;;;;;;;;20.80;99.90;;;;;;5059240;28;19939;-65
2022/10/16 03:06:06;;;;;;;;;;;20.80;99.90;;;;;;5042566;28;19925;-66
2022/10/16 03:08:33;;;;;;;;;;;20.80;99.90;;;;;;5049169;28;19925;-65
2022/10/16 03:11:00;;;;;;;;;;;20.80;99.90;;;;;;5044990;28;19931;-64
2022/10/16 03:13:28;;;;;;;;;;;20.80;99.90;;;;;;5042398;28;20313;-66
2022/10/16 03:15:55;;;;;;;;;;;20.80;99.90;;;;;;5040799;28;19936;-64
2022/10/16 03:18:22;;;;;;;;;;;20.80;99.90;;;;;;5039967;28;19929;-64
2022/10/16 03:20:49;;;;;;;;;;;20.80;99.90;;;;;;5038435;28;19947;-66
2022/10/16 03:23:16;;;;;;;;;;;20.80;99.90;;;;;;5052696;28;19936;-64
2022/10/16 03:25:43;;;;;;;;;;;20.80;99.90;;;;;;5032242;28;19929;-66
2022/10/16 03:28:13;;;;;;;;;;;20.80;99.90;;;;;;5047134;28;19935;-65
2022/10/16 03:30:40;;;;;;;;;;;20.80;99.90;;;;;;5043339;28;20351;-64
2022/10/16 03:33:07;;;;;;;;;;;20.80;99.90;;;;;;5039495;28;19936;-65
2022/10/16 03:35:34;;;;;;;;;;;20.80;99.90;;;;;;5048510;28;19928;-66
2022/10/16 03:38:01;;;;;;;;;;;20.70;99.90;;;;;;5051396;28;19928;-66
2022/10/16 03:40:28;;;;;;;;;;;20.70;99.90;;;;;;5040411;28;19933;-67
2022/10/16 03:42:57;;;;;;;;;;;20.80;99.90;;;;;;5039048;28;20404;-64
2022/10/16 03:45:24;;;;;;;;;;;20.70;99.90;;;;;;5043938;28;19926;-63
2022/10/16 03:47:51;;;;;;;;;;;20.80;99.90;;;;;;5039553;28;19925;-64
2022/10/16 03:50:18;;;;;;;;;;;20.80;99.90;;;;;;5044001;28;19932;-65
2022/10/16 03:52:45;;;;;;;;;;;20.80;99.90;;;;;;5057232;28;19924;-65
2022/10/16 03:55:12;;;;;;;;;;;20.70;99.90;;;;;;5050816;28;19929;-67
2022/10/16 03:57:39;;;;;;;;;;;20.80;99.90;;;;;;5050076;28;20197;-65
2022/10/16 04:00:06;;;;;;;;;;;20.80;99.90;;;;;;5061433;28;19925;-66
2022/10/16 04:02:37;;;;;;;;;;;20.80;99.90;;;;;;5054384;28;19928;-65
2022/10/16 04:05:05;;;;;;;;;;;20.80;99.90;;;;;;5056114;28;20392;-65
2022/10/16 04:07:32;;;;;;;;;;;20.90;99.90;;;;;;5058507;28;19933;-65
2022/10/16 04:09:59;;;;;;;;;;;20.90;99.90;;;;;;5056290;28;19948;-66
2022/10/16 04:12:26;;;;;;;;;;;20.90;99.90;;;;;;5041374;28;19925;-66
2022/10/16 04:14:53;;;;;;;;;;;20.90;99.90;;;;;;5039999;28;20316;-65
2022/10/16 04:17:20;;;;;;;;;;;20.90;99.90;;;;;;5044195;28;19940;-65
2022/10/16 04:19:47;;;;;;;;;;;20.90;99.90;;;;;;5037550;28;20411;-66
2022/10/16 04:22:14;;;;;;;;;;;21.00;99.90;;;;;;5047445;28;19932;-65
2022/10/16 04:24:41;;;;;;;;;;;21.00;99.90;;;;;;5044635;28;20414;-68
2022/10/16 04:27:09;;;;;;;;;;;21.00;99.90;;;;;;5052665;28;20303;-66
2022/10/16 04:29:36;;;;;;;;;;;21.00;99.90;;;;;;5050511;28;20305;-65
2022/10/16 04:32:03;;;;;;;;;;;21.00;99.90;;;;;;5037120;28;19935;-64
2022/10/16 04:34:30;;;;;;;;;;;21.00;99.90;;;;;;5037104;28;19928;-65
2022/10/16 04:36:57;;;;;;;;;;;21.00;99.90;;;;;;5041899;28;19928;-67
2022/10/16 04:39:24;;;;;;;;;;;21.10;99.90;;;;;;5043929;28;19925;-64
2022/10/16 04:41:51;;;;;;;;;;;21.00;99.90;;;;;;5051435;28;19924;-65
2022/10/16 04:44:18;;;;;;;;;;;21.00;99.90;;;;;;5046329;28;19925;-66
2022/10/16 04:46:45;;;;;;;;;;;21.00;99.90;;;;;;5045642;28;20366;-63
2022/10/16 04:49:12;;;;;;;;;;;21.00;99.90;;;;;;5051243;28;19929;-66
2022/10/16 04:51:39;;;;;;;;;;;21.10;99.90;;;;;;5049958;28;19924;-66
2022/10/16 04:54:06;;;;;;;;;;;21.00;99.90;;;;;;5044323;28;19932;-64
2022/10/16 04:56:39;;;;;;;;;;;21.00;99.90;;;;;;5054740;28;19932;-66
2022/10/16 04:59:06;;;;;;;;;;;21.00;99.90;;;;;;5049721;28;19937;-65
2022/10/16 05:01:33;;;;;;;;;;;21.00;99.90;;;;;;5046788;28;19928;-67
2022/10/16 05:04:01;;;;;;;;;;;21.00;99.90;;;;;;5050024;28;19933;-66
2022/10/16 05:06:28;;;;;;;;;;;21.00;99.90;;;;;;5051139;28;20363;-66
2022/10/16 05:08:55;;;;;;;;;;;21.00;99.90;;;;;;5043080;28;19940;-66
2022/10/16 05:11:22;;;;;;;;;;;21.00;99.90;;;;;;5044131;28;20394;-66
2022/10/16 05:13:49;;;;;;;;;;;21.00;99.90;;;;;;5041486;28;19929;-67
2022/10/16 05:16:21;;;;;;;;;;;21.00;99.90;;;;;;5040588;28;20312;-66
2022/10/16 05:18:48;;;;;;;;;;;21.00;99.90;;;;;;5048326;28;19925;-64
2022/10/16 05:21:19;;;;;;;;;;;21.00;99.90;;;;;;5046047;28;19932;-66
2022/10/16 05:23:46;;;;;;;;;;;21.00;99.90;;;;;;5048356;28;19929;-64
2022/10/16 05:26:13;;;;;;;;;;;21.00;99.90;;;;;;5052373;28;19935;-66
2022/10/16 05:28:40;;;;;;;;;;;21.00;99.90;;;;;;5057719;28;19928;-65
2022/10/16 05:31:08;;;;;;;;;;;21.00;99.90;;;;;;5042768;28;19952;-66
2022/10/16 05:33:36;;;;;;;;;;;21.00;99.90;;;;;;5047698;28;19925;-65
2022/10/16 05:36:03;;;;;;;;;;;21.00;99.90;;;;;;5044295;28;20312;-65
2022/10/16 05:38:30;;;;;;;;;;;21.00;99.90;;;;;;5047976;28;20300;-65
2022/10/16 05:40:57;;;;;;;;;;;21.00;99.90;;;;;;5042345;28;19929;-66
2022/10/16 05:43:25;;;;;;;;;;;21.00;99.90;;;;;;5045273;28;19929;-66
2022/10/16 05:45:55;;;;;;;;;;;21.00;99.90;;;;;;5046167;28;20292;-66
2022/10/16 05:48:23;;;;;;;;;;;21.00;99.90;;;;;;5046449;28;19940;-66
2022/10/16 05:51:03;;;;;;;;;;;21.00;99.90;;;;;;5045739;28;19925;-65
2022/10/16 05:53:31;;;;;;;;;;;21.00;99.90;;;;;;5054409;28;19928;-65
2022/10/16 05:55:58;;;;;;;;;;;21.00;99.90;;;;;;5047336;28;19928;-66
2022/10/16 05:58:30;;;;;;;;;;;21.00;99.90;;;;;;5039508;28;19936;-66
2022/10/16 06:00:58;;;;;;;;;;;21.00;99.90;;;;;;5055020;28;20312;-65
2022/10/16 06:03:25;;;;;;;;;;;21.00;99.90;;;;;;5045923;28;19929;-65
2022/10/16 06:05:53;;;;;;;;;;;21.00;99.90;;;;;;5059337;28;19929;-65
2022/10/16 06:08:22;;;;;;;;;;;21.00;99.90;;;;;;5050765;28;19933;-66
2022/10/16 06:10:49;;;;;;;;;;;21.00;99.90;;;;;;5059723;28;20395;-68
2022/10/16 06:13:16;;;;;;;;;;;21.00;99.90;;;;;;5060890;28;19935;-66
2022/10/16 06:15:43;;;;;;;;;;;21.00;99.90;;;;;;5065757;28;19940;-67
2022/10/16 06:18:10;;;;;;;;;;;21.00;99.90;;;;;;5056430;28;19929;-67
2022/10/16 06:20:37;;;;;;;;;;;21.00;99.90;;;;;;5053646;28;19929;-65
2022/10/16 06:23:05;;;;;;;;;;;21.00;99.90;;;;;;5046391;28;19925;-66
2022/10/16 06:25:32;;;;;;;;;;;21.00;99.90;;;;;;5045353;28;19929;-65
2022/10/16 06:27:59;;;;;;;;;;;21.00;99.90;;;;;;5042104;28;19925;-67
2022/10/16 06:30:26;;;;;;;;;;;21.00;99.90;;;;;;5046230;28;19924;-66
2022/10/16 06:32:54;;;;;;;;;;;21.00;99.90;;;;;;5048469;28;19924;-65
2022/10/16 06:35:26;;;;;;;;;;;21.00;99.90;;;;;;5052037;28;19925;-64
2022/10/16 06:37:53;;;;;;;;;;;21.00;99.90;;;;;;5049407;28;19929;-66
2022/10/16 06:40:20;;;;;;;;;;;21.00;99.90;;;;;;5043334;28;19940;-64
2022/10/16 06:42:47;;;;;;;;;;;21.00;99.90;;;;;;5044153;28;19929;-65
2022/10/16 06:45:14;;;;;;;;;;;21.00;99.90;;;;;;5050477;28;19925;-65
2022/10/16 06:47:41;;;;;;;;;;;21.00;99.90;;;;;;5050471;28;19932;-65
2022/10/16 06:50:08;;;;;;;;;;;21.00;99.90;;;;;;5044119;28;19933;-66
2022/10/16 06:52:35;;;;;;;;;;;21.10;99.90;;;;;;5047973;28;19924;-69
2022/10/16 06:55:02;;;;;;;;;;;21.10;99.90;;;;;;5043951;28;20324;-67
2022/10/16 06:57:29;;;;;;;;;;;21.10;99.90;;;;;;5044908;28;19939;-64
2022/10/16 06:59:57;;;;;;;;;;;21.10;99.90;;;;;;5048968;28;21779;-65
2022/10/16 07:02:25;;;;;;;;;;;21.10;99.90;;;;;;5044805;28;20456;-65
2022/10/16 07:04:52;;;;;;;;;;;21.20;99.90;;;;;;5038865;28;20347;-66
2022/10/16 07:07:19;;;;;;;;;;;21.10;99.90;;;;;;5044980;28;19933;-65
2022/10/16 07:09:46;;;;;;;;;;;21.10;99.90;;;;;;5054471;28;20400;-67
2022/10/16 07:12:13;;;;;;;;;;;21.10;99.90;;;;;;5042331;28;19929;-64
2022/10/16 07:14:40;;;;;;;;;;;21.10;99.90;;;;;;5039629;28;20400;-64
2022/10/16 07:17:08;;;;;;;;;;;21.10;99.90;;;;;;5045120;28;19928;-65
2022/10/16 07:19:35;;;;;;;;;;;21.10;99.90;;;;;;5043507;28;19948;-65
2022/10/16 07:22:02;;;;;;;;;;;21.10;99.90;;;;;;5040350;28;19932;-66
2022/10/16 07:24:30;;;;;;;;;;;21.10;99.90;;;;;;5045362;28;20328;-66
2022/10/16 07:26:57;;;;;;;;;;;21.20;99.90;;;;;;5046877;28;19928;-65
2022/10/16 07:29:24;;;;;;;;;;;21.20;99.90;;;;;;5044774;28;20404;-69
2022/10/16 07:31:51;;;;;;;;;;;21.20;99.90;;;;;;5033108;28;20072;-64
2022/10/16 07:34:18;;;;;;;;;;;21.20;99.90;;;;;;5040703;28;19926;-64
2022/10/16 07:36:47;;;;;;;;;;;21.20;99.90;;;;;;5040645;28;19929;-65
2022/10/16 07:39:15;;;;;;;;;;;21.30;99.90;;;;;;5051621;28;20318;-65
2022/10/16 07:41:42;;;;;;;;;;;21.30;99.90;;;;;;5044695;28;20435;-66
2022/10/16 07:44:09;;;;;;;;;;;21.30;99.90;;;;;;5048050;28;19936;-65
2022/10/16 07:46:36;;;;;;;;;;;21.20;99.90;;;;;;5040949;28;19932;-67
2022/10/16 07:49:04;;;;;;;;;;;21.10;99.90;;;;;;5039139;28;20414;-67
2022/10/16 07:51:31;;;;;;;;;;;20.90;99.90;;;;;;5039372;28;19929;-68
2022/10/16 07:53:58;;;;;;;;;;;20.60;99.90;;;;;;5044081;28;19929;-68
2022/10/16 07:56:25;;;;;;;;;;;20.50;99.90;;;;;;5043642;28;19929;-69
2022/10/16 07:58:53;;;;;;;;;;;20.40;99.90;;;;;;5036771;28;19939;-67
2022/10/16 08:01:20;;;;;;;;;;;20.30;99.90;;;;;;5042611;28;19928;-66
2022/10/16 08:03:48;;;;;;;;;;;20.20;99.90;;;;;;5045982;28;19929;-68
2022/10/16 08:06:16;;;;;;;;;;;20.20;99.90;;;;;;5045543;28;19925;-68
2022/10/16 08:08:48;;;;;;;;;;;20.30;99.90;;;;;;5045908;28;19936;-68
2022/10/16 08:11:15;;;;;;;;;;;20.40;99.90;;;;;;5036064;28;19936;-67
2022/10/16 08:13:42;;;;;;;;;;;20.60;99.90;;;;;;5045520;28;19939;-68
2022/10/16 08:16:09;;;;;;;;;;;20.80;99.90;;;;;;5046806;28;19924;-67
2022/10/16 08:18:37;;;;;;;;;;;20.90;99.90;;;;;;5045223;28;20364;-69
2022/10/16 08:21:05;;;;;;;;;;;21.00;99.90;;;;;;5055057;28;19929;-70
2022/10/16 08:23:33;;;;;;;;;;;21.10;99.90;;;;;;5058934;28;20112;-73
2022/10/16 08:26:05;;;;;;;;;;;21.20;99.90;;;;;;5065612;28;19925;-71
2022/10/16 08:28:32;;;;;;;;;;;21.30;99.90;;;;;;5058980;28;20018;-71
2022/10/16 08:31:10;;;;;;;;;;;21.40;99.90;;;;;;5057021;28;19924;-72
2022/10/16 08:33:37;;;;;;;;;;;21.50;99.90;;;;;;5055053;28;20160;-73
2022/10/16 08:36:05;;;;;;;;;;;21.50;99.90;;;;;;5046891;28;19929;-69
2022/10/16 08:38:33;;;;;;;;;;;21.50;99.90;;;;;;5046694;28;19940;-70
2022/10/16 08:41:21;;;;;;;;;;;21.60;99.90;;;;;;5041497;28;19935;-72
2022/10/16 08:44:09;;;;;;;;;;;21.50;99.90;;;;;;5026229;28;19939;-69
2022/10/16 08:46:55;;;;;;;;;;;21.60;99.90;;;;;;5038595;28;19925;-72
2022/10/16 08:49:24;;;;;;;;;;;21.60;99.90;;;;;;5047750;28;19928;-70
2022/10/16 08:51:51;;;;;;;;;;;21.60;99.90;;;;;;5050304;28;19924;-70
2022/10/16 08:54:36;;;;;;;;;;;21.60;99.90;;;;;;5043152;28;21376;-68
2022/10/16 08:57:12;;;;;;;;;;;21.60;99.90;;;;;;5049341;28;19940;-68
2022/10/16 08:59:39;;;;;;;;;;;21.60;99.90;;;;;;5040685;28;20324;-69
2022/10/16 09:02:23;;;;;;;;;;;21.60;99.90;;;;;;5047558;28;19925;-66
2022/10/16 09:05:00;;;;;;;;;;;21.60;99.90;;;;;;5044987;28;19939;-66
2022/10/16 09:07:38;;;;;;;;;;;21.60;99.90;;;;;;5046186;28;20289;-67
2022/10/16 09:10:23;;;;;;;;;;;21.60;99.90;;;;;;5052840;28;20392;-69
2022/10/16 09:12:53;;;;;;;;;;;21.50;99.90;;;;;;5048478;28;19925;-66
2022/10/16 09:15:30;;;;;;;;;;;21.50;99.90;;;;;;5047470;28;19925;-69
2022/10/16 09:18:00;;;;;;;;;;;21.50;99.90;;;;;;5039788;28;19929;-68
2022/10/16 09:20:46;;;;;;;;;;;21.50;99.90;;;;;;5043124;28;19932;-66
2022/10/16 09:23:15;;;;;;;;;;;21.50;99.90;;;;;;5042943;28;20384;-68
2022/10/16 09:25:43;;;;;;;;;;;21.50;99.90;;;;;;5045247;28;20307;-68
2022/10/16 09:28:11;;;;;;;;;;;21.50;99.90;;;;;;5049883;28;19936;-67
2022/10/16 09:30:39;;;;;;;;;;;21.40;99.90;;;;;;5040954;28;19929;-67
2022/10/16 09:33:07;;;;;;;;;;;21.40;99.90;;;;;;5040027;28;19932;-69
2022/10/16 09:35:38;;;;;;;;;;;21.40;99.90;;;;;;5039170;28;20632;-68
2022/10/16 09:38:06;;;;;;;;;;;21.40;99.90;;;;;;5046423;28;19935;-65
2022/10/16 09:40:36;;;;;;;;;;;21.40;99.90;;;;;;5048675;28;19928;-66
2022/10/16 09:43:12;;;;;;;;;;;21.40;99.90;;;;;;5050626;28;19925;-66
2022/10/16 09:45:40;;;;;;;;;;;21.40;99.90;;;;;;5043705;28;20508;-65
2022/10/16 09:48:11;;;;;;;;;;;21.30;99.90;;;;;;5052272;28;19928;-63
2022/10/16 09:50:38;;;;;;;;;;;21.40;99.90;;;;;;5046173;28;19929;-65
2022/10/16 09:53:10;;;;;;;;;;;21.40;99.90;;;;;;5040361;28;19959;-62
2022/10/16 09:55:47;;;;;;;;;;;21.40;99.90;;;;;;5038249;28;19929;-62
2022/10/16 09:58:14;;;;;;;;;;;21.10;99.90;;;;;;5042541;28;19937;-61
2022/10/16 10:00:42;;;;;;;;;;;21.00;99.90;;;;;;5053262;28;19928;-61
2022/10/16 10:03:10;;;;;;;;;;;21.00;99.90;;;;;;5047081;28;19925;-62
2022/10/16 10:05:39;;;;;;;;;;;20.90;99.90;;;;;;5051544;28;19929;-63
2022/10/16 10:08:07;;;;;;;;;;;20.90;99.90;;;;;;5063881;28;19937;-61
2022/10/16 10:10:41;;;;;;;;;;;20.90;99.90;;;;;;5035671;28;20471;-62
2022/10/16 10:13:22;;;;;;;;;;;21.00;99.90;;;;;;5051513;28;20124;-62
2022/10/16 10:15:50;;;;;;;;;;;21.10;99.90;;;;;;5045392;28;19928;-61
2022/10/16 10:18:22;;;;;;;;;;;21.20;99.90;;;;;;5048647;28;20281;-63
2022/10/16 10:20:59;;;;;;;;;;;21.20;99.90;;;;;;5053262;28;19929;-61
2022/10/16 10:23:27;;;;;;;;;;;21.10;99.90;;;;;;5046558;28;19928;-64
2022/10/16 10:25:54;;;;;;;;;;;21.10;99.90;;;;;;5047647;28;19952;-64
2022/10/16 10:28:54;;;;;;;;;;;21.10;99.90;;;;;;5046224;28;19929;-62
2022/10/16 10:31:24;;;;;;;;;;;21.00;99.90;;;;;;5042343;28;19925;-62
2022/10/16 10:34:00;;;;;;;;;;;21.00;99.90;;;;;;5057350;28;19924;-63
2022/10/16 10:36:30;;;;;;;;;;;21.00;99.90;;;;;;5041716;28;19939;-64
2022/10/16 10:39:03;;;;;;;;;;;21.10;99.90;;;;;;5045566;28;20400;-65
2022/10/16 10:41:30;;;;;;;;;;;21.10;99.90;;;;;;5050912;28;19924;-63
2022/10/16 10:44:10;;;;;;;;;;;21.00;99.90;;;;;;5045212;28;19940;-60
2022/10/16 10:46:43;;;;;;;;;;;21.00;99.90;;;;;;5044747;28;19928;-63
2022/10/16 10:49:30;;;;;;;;;;;21.00;99.90;;;;;;5039294;28;20431;-62
2022/10/16 10:52:06;;;;;;;;;;;21.00;99.90;;;;;;5040487;28;20476;-59
2022/10/16 10:54:49;;;;;;;;;;;21.10;99.90;;;;;;5038151;28;19932;-64
2022/10/16 10:57:19;;;;;;;;;;;21.10;99.90;;;;;;5048569;28;19930;-62
2022/10/16 11:00:06;;;;;;;;;;;21.10;99.90;;;;;;5044793;28;19933;-62
2022/10/16 11:02:41;;;;;;;;;;;21.10;99.90;;;;;;5059246;28;19936;-55
2022/10/16 11:05:11;;;;;;;;;;;21.10;99.90;;;;;;5050993;28;20405;-64
2022/10/16 11:07:42;;;;;;;;;;;21.20;99.90;;;;;;5038460;28;20356;-63
2022/10/16 11:10:14;;;;;;;;;;;21.10;99.90;;;;;;5048242;28;19925;-63
2022/10/16 11:12:46;;;;;;;;;;;21.20;99.90;;;;;;5043597;28;19925;-64
2022/10/16 11:15:13;;;;;;;;;;;21.20;99.90;;;;;;5035784;28;19929;-65
2022/10/16 11:18:01;;;;;;;;;;;21.10;99.90;;;;;;5044744;28;20395;-61
2022/10/16 11:20:31;;;;;;;;;;;21.10;99.90;;;;;;5049725;28;19939;-60
2022/10/16 11:23:10;;;;;;;;;;;21.10;99.90;;;;;;5048239;28;19936;-63
2022/10/16 11:25:38;;;;;;;;;;;21.10;99.90;;;;;;5046295;28;19929;-64
2022/10/16 11:28:29;;;;;;;;;;;21.10;99.90;;;;;;5053967;28;19925;-60
2022/10/16 11:31:19;;;;;;;;;;;21.10;99.90;;;;;;5046869;28;19935;-63
2022/10/16 11:33:54;;;;;;;;;;;21.10;99.90;;;;;;5047958;28;19928;-61
2022/10/16 11:36:21;;;;;;;;;;;21.10;99.90;;;;;;5056774;28;19925;-59
2022/10/16 11:38:59;;;;;;;;;;;21.10;99.90;;;;;;5034833;28;19933;-64
2022/10/16 11:41:29;;;;;;;;;;;21.20;99.90;;;;;;5043953;28;19929;-64
2022/10/16 11:44:15;;;;;;;;;;;21.20;99.90;;;;;;5052061;28;19925;-66
2022/10/16 11:46:45;;;;;;;;;;;21.20;99.90;;;;;;5039094;28;20424;-62
2022/10/16 11:49:33;;;;;;;;;;;21.20;99.90;;;;;;5038749;28;19936;-64
2022/10/16 11:52:06;;;;;;;;;;;21.20;99.90;;;;;;5044761;28;19931;-63
2022/10/16 11:54:48;;;;;;;;;;;21.10;99.90;;;;;;5043381;28;19924;-62
2022/10/16 11:57:26;;;;;;;;;;;21.20;99.90;;;;;;5059957;28;19929;-61
2022/10/16 12:00:06;;;;;;;;;;;21.20;99.90;;;;;;5051784;28;19929;-64
2022/10/16 12:02:57;;;;;;;;;;;21.20;99.90;;;;;;5062593;28;20448;-66
2022/10/16 12:05:31;;;;;;;;;;;21.20;99.90;;;;;;5059098;28;19935;-64
2022/10/16 12:08:01;;;;;;;;;;;21.20;99.90;;;;;;5046884;28;19935;-65
2022/10/16 12:10:31;;;;;;;;;;;21.20;99.90;;;;;;5055677;28;19940;-65
2022/10/16 12:12:58;;;;;;;;;;;21.20;99.90;;;;;;5058206;28;19928;-63
2022/10/16 12:15:30;;;;;;;;;;;21.20;99.90;;;;;;5048353;28;19929;-62
2022/10/16 12:18:21;;;;;;;;;;;21.20;99.90;;;;;;5043137;28;19929;-63
2022/10/16 12:20:59;;;;;;;;;;;21.20;99.90;;;;;;5049291;28;19929;-63
2022/10/16 12:23:26;;;;;;;;;;;21.20;99.90;;;;;;5054650;28;19925;-62
2022/10/16 12:25:58;;;;;;;;;;;21.20;99.90;;;;;;5057991;28;20004;-63
2022/10/16 12:28:31;;;;;;;;;;;21.10;99.90;;;;;;5041007;28;19925;-60
2022/10/16 12:31:01;;;;;;;;;;;21.20;99.90;;;;;;5047867;28;20312;-60
2022/10/16 12:33:30;;;;;;;;;;;21.10;99.90;;;;;;5049128;28;19936;-66
2022/10/16 12:35:59;;;;;;;;;;;21.20;99.90;;;;;;5047035;28;19929;-62
2022/10/16 12:38:27;;;;;;;;;;;21.20;99.90;;;;;;5060990;28;19929;-62
2022/10/16 12:41:02;;;;;;;;;;;21.20;99.90;;;;;;5048060;28;19924;-63
2022/10/16 12:43:42;;;;;;;;;;;21.10;99.90;;;;;;5045890;28;19925;-63
2022/10/16 12:46:09;;;;;;;;;;;21.10;99.90;;;;;;5051030;28;19936;-62
2022/10/16 12:48:40;;;;;;;;;;;21.20;99.90;;;;;;5058938;28;19932;-61
2022/10/16 12:51:23;;;;;;;;;;;21.20;99.90;;;;;;5049509;28;19925;-63
2022/10/16 12:54:04;;;;;;;;;;;21.10;99.90;;;;;;5041778;28;19929;-59
2022/10/16 12:56:50;;;;;;;;;;;21.10;99.90;;;;;;5045780;28;19928;-59
2022/10/16 12:59:34;;;;;;;;;;;21.10;99.90;;;;;;5050204;28;19973;-64
2022/10/16 13:02:08;;;;;;;;;;;21.20;99.90;;;;;;5056578;28;19935;-63
2022/10/16 13:04:45;;;;;;;;;;;21.20;99.90;;;;;;5047784;28;19951;-65
2022/10/16 13:07:18;;;;;;;;;;;21.20;99.90;;;;;;5060884;28;19936;-60
2022/10/16 13:09:45;;;;;;;;;;;21.20;99.90;;;;;;5048852;28;20024;-63
2022/10/16 13:12:15;;;;;;;;;;;21.20;99.90;;;;;;5049605;28;19932;-63
2022/10/16 13:14:49;;;;;;;;;;;21.10;99.90;;;;;;5049045;28;20307;-63
2022/10/16 13:17:31;;;;;;;;;;;21.20;99.90;;;;;;5044046;28;19933;-63
2022/10/16 13:20:04;;;;;;;;;;;21.10;99.90;;;;;;5053383;28;19925;-62
2022/10/16 13:22:46;;;;;;;;;;;21.10;99.90;;;;;;5051543;28;20287;-63
2022/10/16 13:25:29;;;;;;;;;;;21.20;99.90;;;;;;5038578;28;19929;-61
2022/10/16 13:27:59;;;;;;;;;;;21.10;99.90;;;;;;5045933;28;19939;-62
2022/10/16 13:30:28;;;;;;;;;;;21.20;99.90;;;;;;5045801;28;20332;-60
2022/10/16 13:32:57;;;;;;;;;;;21.10;99.90;;;;;;5043253;28;19929;-64
2022/10/16 13:35:26;;;;;;;;;;;21.20;99.90;;;;;;5049103;28;20316;-61
2022/10/16 13:38:22;;;;;;;;;;;21.20;99.90;;;;;;5041212;28;19933;-61
2022/10/16 13:40:54;;;;;;;;;;;21.20;99.90;;;;;;5045786;28;19929;-67
2022/10/16 13:43:24;;;;;;;;;;;21.10;99.90;;;;;;5044645;28;19939;-60
2022/10/16 13:45:57;;;;;;;;;;;21.10;99.90;;;;;;5048105;28;20300;-60
2022/10/16 13:48:25;;;;;;;;;;;21.10;99.90;;;;;;5055528;28;19936;-60
2022/10/16 13:51:06;;;;;;;;;;;21.20;99.90;;;;;;5041425;28;19936;-65
2022/10/16 13:53:35;;;;;;;;;;;21.20;99.90;;;;;;5042122;28;20296;-58
2022/10/16 13:56:04;;;;;;;;;;;21.10;99.90;;;;;;5057732;28;19936;-62
2022/10/16 13:58:31;;;;;;;;;;;21.10;99.90;;;;;;5058297;28;19925;-63
2022/10/16 14:00:59;;;;;;;;;;;21.10;99.90;;;;;;5032744;28;19931;-62
2022/10/16 14:03:27;;;;;;;;;;;21.20;99.90;;;;;;5048813;28;19929;-61
2022/10/16 14:05:56;;;;;;;;;;;21.10;99.90;;;;;;5048869;28;19924;-62
2022/10/16 14:08:24;;;;;;;;;;;21.10;99.90;;;;;;5034824;28;19925;-63
2022/10/16 14:10:56;;;;;;;;;;;21.10;99.90;;;;;;5048919;28;19935;-62
2022/10/16 14:13:31;;;;;;;;;;;21.10;99.90;;;;;;5045288;28;19999;-62
2022/10/16 14:15:59;;;;;;;;;;;21.10;99.90;;;;;;5045186;28;20235;-62
2022/10/16 14:18:27;;;;;;;;;;;21.10;99.90;;;;;;5045581;28;20306;-61
2022/10/16 14:21:06;;;;;;;;;;;21.10;99.90;;;;;;5053910;28;19935;-63
2022/10/16 14:23:38;;;;;;;;;;;21.10;99.90;;;;;;5038655;28;19924;-62
2022/10/16 14:26:15;;;;;;;;;;;21.10;99.90;;;;;;5051723;28;19932;-63
2022/10/16 14:28:42;;;;;;;;;;;21.10;99.90;;;;;;5039176;28;19929;-56
2022/10/16 14:31:19;;;;;;;;;;;21.20;99.90;;;;;;5051386;23;19932;-65
2022/10/16 14:33:46;;;;;;;;;;;21.10;99.90;;;;;;5025779;28;20456;-65
2022/10/16 14:36:14;;;;;;;;;;;21.20;99.90;;;;;;5023101;28;19929;-64